createdAt,value
2018-09-25T00:01:09.192Z,10.90
2018-09-25T00:03:43.616Z,10.90
2018-09-25T00:06:18.032Z,11.00
2018-09-25T00:08:52.315Z,10.90
2018-09-25T00:11:26.553Z,10.90
2018-09-25T00:14:00.983Z,10.80
2018-09-25T00:16:36.032Z,10.60
2018-09-25T00:19:10.352Z,10.70
2018-09-25T00:21:44.506Z,10.70
2018-09-25T00:24:18.885Z,10.70
2018-09-25T00:26:53.109Z,10.80
2018-09-25T00:29:27.483Z,10.60
2018-09-25T00:32:01.688Z,10.60
2018-09-25T00:34:36.029Z,10.60
2018-09-25T00:37:10.583Z,10.50
2018-09-25T00:39:44.820Z,10.50
2018-09-25T00:42:19.176Z,10.30
2018-09-25T00:44:53.388Z,10.30
2018-09-25T00:47:28.367Z,10.20
2018-09-25T00:50:02.660Z,10.30
2018-09-25T00:52:36.928Z,10.40
2018-09-25T00:55:11.572Z,10.40
2018-09-25T00:57:45.997Z,10.50
2018-09-25T01:00:20.417Z,10.50
2018-09-25T01:02:54.750Z,10.40
2018-09-25T01:05:29.159Z,10.40
2018-09-25T01:08:03.385Z,10.40
2018-09-25T01:10:37.688Z,10.40
2018-09-25T01:13:12.011Z,10.30
2018-09-25T01:15:46.344Z,10.20
2018-09-25T01:18:21.203Z,10.20
2018-09-25T01:20:55.543Z,10.10
2018-09-25T01:23:29.788Z,10.00
2018-09-25T01:26:04.244Z,9.80
2018-09-25T01:28:38.527Z,9.80
2018-09-25T01:31:12.847Z,9.70
2018-09-25T01:33:47.067Z,9.70
2018-09-25T01:36:21.294Z,9.60
2018-09-25T01:38:55.645Z,9.60
2018-09-25T01:41:29.919Z,9.50
2018-09-25T01:44:04.201Z,9.70
2018-09-25T01:46:38.563Z,9.70
2018-09-25T01:49:13.053Z,9.40
2018-09-25T01:51:47.372Z,9.50
2018-09-25T01:54:21.685Z,9.40
2018-09-25T01:56:56.133Z,9.50
2018-09-25T01:59:30.459Z,9.40
2018-09-25T02:02:04.720Z,9.50
2018-09-25T02:04:39.081Z,9.40
2018-09-25T02:07:13.303Z,9.40
2018-09-25T02:09:47.670Z,9.30
2018-09-25T02:12:21.915Z,9.50
2018-09-25T02:14:56.232Z,9.40
2018-09-25T02:17:30.517Z,9.30
2018-09-25T02:20:04.840Z,9.20
2018-09-25T02:22:39.288Z,9.00
2018-09-25T02:25:13.765Z,9.00
2018-09-25T02:27:48.976Z,9.10
2018-09-25T02:30:23.360Z,9.10
2018-09-25T02:32:57.741Z,9.20
2018-09-25T02:35:32.161Z,9.20
2018-09-25T02:38:06.600Z,9.20
2018-09-25T02:40:40.971Z,9.30
2018-09-25T02:43:15.335Z,9.50
2018-09-25T02:45:49.651Z,9.50
2018-09-25T02:48:23.978Z,9.50
2018-09-25T02:50:58.316Z,9.30
2018-09-25T02:53:32.637Z,9.20
2018-09-25T02:56:06.957Z,9.00
2018-09-25T02:58:42.014Z,8.90
2018-09-25T03:01:16.305Z,8.90
2018-09-25T03:03:50.629Z,8.90
2018-09-25T03:06:24.944Z,8.70
2018-09-25T03:08:59.262Z,8.80
2018-09-25T03:11:33.470Z,8.80
2018-09-25T03:14:07.877Z,8.90
2018-09-25T03:16:42.320Z,8.80
2018-09-25T03:19:16.719Z,8.60
2018-09-25T03:21:51.159Z,8.70
2018-09-25T03:24:25.561Z,8.60
2018-09-25T03:26:59.872Z,8.60
2018-09-25T03:29:34.196Z,8.60
2018-09-25T03:32:08.439Z,8.60
2018-09-25T03:34:42.877Z,8.50
2018-09-25T03:37:17.248Z,8.50
2018-09-25T03:39:51.612Z,8.50
2018-09-25T03:42:25.937Z,8.60
2018-09-25T03:45:00.333Z,8.60
2018-09-25T03:47:34.645Z,8.70
2018-09-25T03:50:08.890Z,8.60
2018-09-25T03:52:43.267Z,8.60
2018-09-25T03:55:18.168Z,8.60
2018-09-25T03:57:52.504Z,8.80
2018-09-25T04:00:26.851Z,8.80
2018-09-25T04:03:01.000Z,8.80
2018-09-25T04:05:36.313Z,8.90
2018-09-25T04:08:10.697Z,9.00
2018-09-25T04:10:44.945Z,9.10
2018-09-25T04:13:19.160Z,9.10
2018-09-25T04:15:53.474Z,9.20
2018-09-25T04:18:27.937Z,9.40
2018-09-25T04:21:02.143Z,9.40
2018-09-25T04:23:36.560Z,9.40
2018-09-25T04:26:10.793Z,9.30
2018-09-25T04:28:45.077Z,9.30
2018-09-25T04:31:19.524Z,9.30
2018-09-25T04:33:53.727Z,9.20
2018-09-25T04:36:28.159Z,9.10
2018-09-25T04:39:02.477Z,9.10
2018-09-25T04:41:36.686Z,9.10
2018-09-25T04:44:10.978Z,9.00
2018-09-25T04:46:45.289Z,9.00
2018-09-25T04:49:19.511Z,8.90
2018-09-25T04:51:53.727Z,8.90
2018-09-25T04:54:27.975Z,8.80
2018-09-25T04:57:02.343Z,8.80
2018-09-25T04:59:36.506Z,8.60
2018-09-25T05:02:10.969Z,8.60
2018-09-25T05:04:45.355Z,8.60
2018-09-25T05:07:19.835Z,8.60
2018-09-25T05:09:54.283Z,8.60
2018-09-25T05:12:36.199Z,8.60
2018-09-25T05:15:10.441Z,8.70
2018-09-25T05:17:44.712Z,9.10
2018-09-25T05:20:19.024Z,9.20
2018-09-25T05:22:53.251Z,9.10
2018-09-25T05:25:27.744Z,9.20
2018-09-25T05:28:02.236Z,9.20
2018-09-25T05:30:36.516Z,9.30
2018-09-25T05:33:11.001Z,9.40
2018-09-25T05:35:45.242Z,9.40
2018-09-25T05:38:19.739Z,9.40
2018-09-25T05:40:53.989Z,9.40
2018-09-25T05:43:28.478Z,9.40
2018-09-25T05:46:02.627Z,9.50
2018-09-25T05:48:36.863Z,9.40
2018-09-25T05:51:11.338Z,9.50
2018-09-25T05:53:45.724Z,9.40
2018-09-25T05:56:19.924Z,9.50
2018-09-25T05:58:54.383Z,9.60
2018-09-25T06:01:28.892Z,9.70
2018-09-25T06:04:03.436Z,9.80
2018-09-25T06:06:37.700Z,9.90
2018-09-25T06:09:13.848Z,9.90
2018-09-25T06:11:48.491Z,9.90
2018-09-25T06:14:22.716Z,10.00
2018-09-25T06:16:57.148Z,10.00
2018-09-25T06:19:31.489Z,10.10
2018-09-25T06:22:05.884Z,10.10
2018-09-25T06:24:40.226Z,10.20
2018-09-25T06:27:14.677Z,10.20
2018-09-25T06:29:48.919Z,10.20
2018-09-25T06:32:23.165Z,10.30
2018-09-25T06:34:57.776Z,10.40
2018-09-25T06:37:32.064Z,10.50
2018-09-25T06:40:06.502Z,10.70
2018-09-25T06:42:40.782Z,10.80
2018-09-25T06:45:15.201Z,10.80
2018-09-25T06:47:49.502Z,10.90
2018-09-25T06:50:23.874Z,11.00
2018-09-25T06:52:58.176Z,11.10
2018-09-25T06:55:32.532Z,11.20
2018-09-25T06:58:06.848Z,11.40
2018-09-25T07:00:41.379Z,11.50
2018-09-25T07:03:15.749Z,11.60
2018-09-25T07:05:50.034Z,11.70
2018-09-25T07:08:26.680Z,11.70
2018-09-25T07:11:01.091Z,11.80
2018-09-25T07:13:35.408Z,11.90
2018-09-25T07:16:09.723Z,12.00
2018-09-25T07:18:44.112Z,12.00
2018-09-25T07:21:18.621Z,12.00
2018-09-25T07:23:53.055Z,12.10
2018-09-25T07:26:27.442Z,12.20
2018-09-25T07:29:03.002Z,12.10
2018-09-25T07:31:37.243Z,12.20
2018-09-25T07:34:11.458Z,12.20
2018-09-25T07:36:45.889Z,12.50
2018-09-25T07:39:20.138Z,12.40
2018-09-25T07:41:54.835Z,12.60
2018-09-25T07:44:29.235Z,12.70
2018-09-25T07:47:03.839Z,12.90
2018-09-25T07:49:38.289Z,13.00
2018-09-25T07:52:12.652Z,13.20
2018-09-25T07:54:46.822Z,13.40
2018-09-25T07:57:21.388Z,13.50
2018-09-25T07:59:55.834Z,13.30
2018-09-25T08:02:30.281Z,13.20
2018-09-25T08:05:04.597Z,13.00
2018-09-25T08:07:39.912Z,12.90
2018-09-25T08:10:14.359Z,12.90
2018-09-25T08:12:49.548Z,13.10
2018-09-25T08:15:23.955Z,13.20
2018-09-25T08:17:58.131Z,13.30
2018-09-25T08:20:32.329Z,13.40
2018-09-25T08:23:06.804Z,13.60
2018-09-25T08:25:41.211Z,13.70
2018-09-25T08:28:15.528Z,14.00
2018-09-25T08:30:50.209Z,14.00
2018-09-25T08:33:24.436Z,14.00
2018-09-25T08:35:58.847Z,14.20
2018-09-25T08:38:33.246Z,14.30
2018-09-25T08:41:07.564Z,14.50
2018-09-25T08:43:41.832Z,14.40
2018-09-25T08:46:16.149Z,14.50
2018-09-25T08:48:50.470Z,14.40
2018-09-25T08:51:24.785Z,14.50
2018-09-25T08:53:59.248Z,14.70
2018-09-25T08:56:33.779Z,14.60
2018-09-25T08:59:08.444Z,14.60
2018-09-25T09:01:43.864Z,14.90
2018-09-25T09:04:18.392Z,15.00
2018-09-25T09:06:52.888Z,15.00
2018-09-25T09:09:27.317Z,15.10
2018-09-25T09:12:01.903Z,14.90
2018-09-25T09:14:36.154Z,14.90
2018-09-25T09:17:10.391Z,15.00
2018-09-25T09:19:44.736Z,14.90
2018-09-25T09:22:19.105Z,14.70
2018-09-25T09:24:53.452Z,14.50
2018-09-25T09:27:27.724Z,14.50
2018-09-25T09:30:02.316Z,14.60
2018-09-25T09:32:37.004Z,14.80
2018-09-25T09:35:11.512Z,14.80
2018-09-25T09:37:46.025Z,15.10
2018-09-25T09:40:20.365Z,15.20
2018-09-25T09:42:54.737Z,15.50
2018-09-25T09:45:29.092Z,15.60
2018-09-25T09:48:03.270Z,15.80
2018-09-25T09:50:37.489Z,15.90
2018-09-25T09:53:11.965Z,16.10
2018-09-25T09:55:46.196Z,16.30
2018-09-25T09:58:20.607Z,16.60
2018-09-25T10:00:54.859Z,16.60
2018-09-25T10:03:29.148Z,16.20
2018-09-25T10:06:03.360Z,16.10
2018-09-25T10:08:37.607Z,16.10
2018-09-25T10:11:12.100Z,16.20
2018-09-25T10:13:46.313Z,15.90
2018-09-25T10:16:20.836Z,16.50
2018-09-25T10:18:55.325Z,16.60
2018-09-25T10:21:29.596Z,16.90
2018-09-25T10:24:03.937Z,17.10
2018-09-25T10:26:38.347Z,17.10
2018-09-25T10:29:12.665Z,16.70
2018-09-25T10:31:47.051Z,16.70
2018-09-25T10:34:21.604Z,16.80
2018-09-25T10:36:55.925Z,17.20
2018-09-25T10:39:30.314Z,17.10
2018-09-25T10:42:04.673Z,17.20
2018-09-25T10:44:39.060Z,17.10
2018-09-25T10:47:14.471Z,17.40
2018-09-25T10:49:48.696Z,17.60
2018-09-25T10:52:22.989Z,18.00
2018-09-25T10:54:57.224Z,18.10
2018-09-25T10:57:31.560Z,17.90
2018-09-25T11:00:05.983Z,17.90
2018-09-25T11:02:40.257Z,18.20
2018-09-25T11:05:14.999Z,18.00
2018-09-25T11:07:49.453Z,17.80
2018-09-25T11:10:24.102Z,18.30
2018-09-25T11:12:58.396Z,18.40
2018-09-25T11:15:32.909Z,18.10
2018-09-25T11:18:08.321Z,18.60
2018-09-25T11:20:42.555Z,18.50
2018-09-25T11:23:16.827Z,18.30
2018-09-25T11:25:51.133Z,18.80
2018-09-25T11:28:25.587Z,19.20
2018-09-25T11:30:59.924Z,20.60
2018-09-25T11:33:34.113Z,21.70
2018-09-25T11:36:09.071Z,22.00
2018-09-25T11:38:43.448Z,22.00
2018-09-25T11:41:17.842Z,22.20
2018-09-25T11:43:52.082Z,22.80
2018-09-25T11:46:26.344Z,22.60
2018-09-25T11:49:01.637Z,23.10
2018-09-25T11:51:35.999Z,24.00
2018-09-25T11:54:10.251Z,23.50
2018-09-25T11:56:44.560Z,23.70
2018-09-25T11:59:18.789Z,24.10
2018-09-25T12:01:52.991Z,23.90
2018-09-25T12:04:27.252Z,24.10
2018-09-25T12:07:01.835Z,25.00
2018-09-25T12:09:36.360Z,24.70
2018-09-25T12:12:10.689Z,24.20
2018-09-25T12:14:44.970Z,23.10
2018-09-25T12:17:19.286Z,23.40
2018-09-25T12:19:53.628Z,23.10
2018-09-25T12:22:28.152Z,23.70
2018-09-25T12:25:02.552Z,24.00
2018-09-25T12:27:36.864Z,23.70
2018-09-25T12:30:11.933Z,23.40
2018-09-25T12:32:46.164Z,22.80
2018-09-25T12:35:20.349Z,23.70
2018-09-25T12:37:56.079Z,23.00
2018-09-25T12:40:30.348Z,24.10
2018-09-25T12:43:04.717Z,24.10
2018-09-25T12:45:39.168Z,24.30
2018-09-25T12:48:13.504Z,24.70
2018-09-25T12:50:48.119Z,24.60
2018-09-25T12:53:22.360Z,24.40
2018-09-25T12:55:56.852Z,24.90
2018-09-25T12:58:31.139Z,25.90
2018-09-25T13:01:05.580Z,25.80
2018-09-25T13:03:39.800Z,25.50
2018-09-25T13:06:13.985Z,25.20
2018-09-25T13:08:50.355Z,25.30
2018-09-25T13:11:24.609Z,25.60
2018-09-25T13:13:58.838Z,25.20
2018-09-25T13:16:33.137Z,24.80
2018-09-25T13:19:07.349Z,25.20
2018-09-25T13:21:41.794Z,25.10
2018-09-25T13:24:16.068Z,25.40
2018-09-25T13:26:50.434Z,25.00
2018-09-25T13:29:24.851Z,24.90
2018-09-25T13:31:59.176Z,26.60
2018-09-25T13:34:33.536Z,25.20
2018-09-25T13:37:07.981Z,25.00
2018-09-25T13:39:42.311Z,25.70
2018-09-25T13:42:16.551Z,26.80
2018-09-25T13:44:50.705Z,26.90
2018-09-25T13:47:25.020Z,26.20
2018-09-25T13:49:59.633Z,25.00
2018-09-25T13:52:34.093Z,25.90
2018-09-25T13:55:08.239Z,26.40
2018-09-25T13:57:42.740Z,25.90
2018-09-25T14:00:17.228Z,25.60
2018-09-25T14:02:51.625Z,24.50
2018-09-25T14:05:25.862Z,25.60
2018-09-25T14:08:00.339Z,26.40
2018-09-25T14:10:35.652Z,27.30
2018-09-25T14:13:09.845Z,26.60
2018-09-25T14:15:44.045Z,26.60
2018-09-25T14:18:18.371Z,26.60
2018-09-25T14:20:52.752Z,25.60
2018-09-25T14:23:27.143Z,25.90
2018-09-25T14:26:01.389Z,25.90
2018-09-25T14:28:35.600Z,26.80
2018-09-25T14:31:10.064Z,26.30
2018-09-25T14:33:44.437Z,26.30
2018-09-25T14:36:18.731Z,26.20
2018-09-25T14:38:52.924Z,25.00
2018-09-25T14:41:27.500Z,23.80
2018-09-25T14:44:01.712Z,22.90
2018-09-25T14:46:36.045Z,22.40
2018-09-25T14:49:10.421Z,22.00
2018-09-25T14:51:44.612Z,21.60
2018-09-25T14:54:19.151Z,21.40
2018-09-25T14:56:54.716Z,21.30
2018-09-25T14:59:28.953Z,21.10
2018-09-25T15:02:03.148Z,20.90
2018-09-25T15:04:37.493Z,20.90
2018-09-25T15:07:11.853Z,20.60
2018-09-25T15:09:46.194Z,20.40
2018-09-25T15:12:22.232Z,20.00
2018-09-25T15:14:56.649Z,19.80
2018-09-25T15:17:31.028Z,19.90
2018-09-25T15:20:05.350Z,19.80
2018-09-25T15:22:39.560Z,19.60
2018-09-25T15:25:14.184Z,19.50
2018-09-25T15:27:48.395Z,19.50
2018-09-25T15:30:22.593Z,19.50
2018-09-25T15:32:56.797Z,19.30
2018-09-25T15:35:31.179Z,19.20
2018-09-25T15:38:05.365Z,19.20
2018-09-25T15:40:39.564Z,19.10
2018-09-25T15:43:14.203Z,19.10
2018-09-25T15:45:48.470Z,19.00
2018-09-25T15:48:22.792Z,18.90
2018-09-25T15:50:57.019Z,18.80
2018-09-25T15:53:31.197Z,18.80
2018-09-25T15:56:05.479Z,18.70
2018-09-25T15:58:39.985Z,18.70
2018-09-25T16:01:14.345Z,18.60
2018-09-25T16:03:48.565Z,18.50
2018-09-25T16:06:22.876Z,18.50
2018-09-25T16:08:57.071Z,18.40
2018-09-25T16:11:31.402Z,18.50
2018-09-25T16:14:06.237Z,18.40
2018-09-25T16:16:40.620Z,18.30
2018-09-25T16:19:14.823Z,18.30
2018-09-25T16:21:49.285Z,18.20
2018-09-25T16:24:23.498Z,18.10
2018-09-25T16:26:57.917Z,18.10
2018-09-25T16:29:32.210Z,18.10
2018-09-25T16:32:06.560Z,18.10
2018-09-25T16:34:40.819Z,18.00
2018-09-25T16:37:15.207Z,18.00
2018-09-25T16:39:49.618Z,17.90
2018-09-25T16:42:24.099Z,17.80
2018-09-25T16:44:58.528Z,17.80
2018-09-25T16:47:33.111Z,17.60
2018-09-25T16:50:07.384Z,17.60
2018-09-25T16:52:41.624Z,17.50
2018-09-25T16:55:16.122Z,17.50
2018-09-25T16:57:50.425Z,17.40
2018-09-25T17:00:24.661Z,17.30
2018-09-25T17:02:58.937Z,17.20
2018-09-25T17:05:33.400Z,17.20
2018-09-25T17:08:07.699Z,17.10
2018-09-25T17:10:41.913Z,17.00
2018-09-25T17:13:16.337Z,16.90
2018-09-25T17:15:50.954Z,16.70
2018-09-25T17:18:25.417Z,16.40
2018-09-25T17:20:59.699Z,16.30
2018-09-25T17:23:33.901Z,16.30
2018-09-25T17:26:08.331Z,16.10
2018-09-25T17:28:43.560Z,16.00
2018-09-25T17:31:17.887Z,15.80
2018-09-25T17:33:52.213Z,15.60
2018-09-25T17:36:26.823Z,15.40
2018-09-25T17:39:00.983Z,15.20
2018-09-25T17:41:35.489Z,15.10
2018-09-25T17:44:09.893Z,15.00
2018-09-25T17:46:46.432Z,15.00
2018-09-25T17:49:21.078Z,15.00
2018-09-25T17:51:55.250Z,14.90
2018-09-25T17:54:29.456Z,14.90
2018-09-25T17:57:03.797Z,14.80
2018-09-25T17:59:38.429Z,14.70
2018-09-25T18:02:12.771Z,14.60
2018-09-25T18:04:47.100Z,14.80
2018-09-25T18:07:21.383Z,14.70
2018-09-25T18:09:56.860Z,14.80
2018-09-25T18:12:31.147Z,14.90
2018-09-25T18:15:05.412Z,15.00
2018-09-25T18:17:39.680Z,14.90
2018-09-25T18:20:13.923Z,14.90
2018-09-25T18:22:48.140Z,15.10
2018-09-25T18:25:22.552Z,15.10
2018-09-25T18:27:56.843Z,15.10
2018-09-25T18:30:31.023Z,15.20
2018-09-25T18:33:05.202Z,15.20
2018-09-25T18:35:39.493Z,15.00
2018-09-25T18:38:13.773Z,15.00
2018-09-25T18:40:48.261Z,15.00
2018-09-25T18:43:22.457Z,14.90
2018-09-25T18:45:56.926Z,14.90
2018-09-25T18:48:31.144Z,14.70
2018-09-25T18:51:05.357Z,14.60
2018-09-25T18:53:39.606Z,14.60
2018-09-25T18:56:13.940Z,14.60
2018-09-25T18:58:48.252Z,14.50
2018-09-25T19:01:23.515Z,14.50
2018-09-25T19:03:57.734Z,14.40
2018-09-25T19:06:32.342Z,14.50
2018-09-25T19:09:06.653Z,14.50
2018-09-25T19:11:41.071Z,14.30
2018-09-25T19:14:15.413Z,14.20
2018-09-25T19:16:49.707Z,14.20
2018-09-25T19:19:24.064Z,14.10
2018-09-25T19:21:58.447Z,13.90
2018-09-25T19:24:32.716Z,13.90
2018-09-25T19:27:07.320Z,13.70
2018-09-25T19:29:41.559Z,13.70
2018-09-25T19:32:15.999Z,13.70
2018-09-25T19:34:50.344Z,13.70
2018-09-25T19:37:24.719Z,13.70
2018-09-25T19:39:59.006Z,13.50
2018-09-25T19:42:34.987Z,13.20
2018-09-25T19:45:09.410Z,13.20
2018-09-25T19:47:43.684Z,13.00
2018-09-25T19:50:18.052Z,12.90
2018-09-25T19:52:52.453Z,12.90
2018-09-25T19:55:26.833Z,12.80
2018-09-25T19:58:01.152Z,12.70
2018-09-25T20:00:35.532Z,12.80
2018-09-25T20:03:09.814Z,12.80
2018-09-25T20:05:44.173Z,12.70
2018-09-25T20:08:18.731Z,12.60
2018-09-25T20:10:52.901Z,12.60
2018-09-25T20:13:27.304Z,12.60
2018-09-25T20:16:01.609Z,12.50
2018-09-25T20:18:35.859Z,12.50
2018-09-25T20:21:10.456Z,12.50
2018-09-25T20:23:44.796Z,12.50
2018-09-25T20:26:18.991Z,12.50
2018-09-25T20:28:53.279Z,12.50
2018-09-25T20:31:27.525Z,12.50
2018-09-25T20:34:02.042Z,12.60
2018-09-25T20:36:36.492Z,12.60
2018-09-25T20:39:11.501Z,12.70
2018-09-25T20:41:46.020Z,12.70
2018-09-25T20:44:21.252Z,12.60
2018-09-25T20:46:55.678Z,12.40
2018-09-25T20:49:29.828Z,12.20
2018-09-25T20:52:04.112Z,12.10
2018-09-25T20:54:38.401Z,12.00
2018-09-25T20:57:12.820Z,12.10
2018-09-25T20:59:47.201Z,12.00
2018-09-25T21:02:21.366Z,11.90
2018-09-25T21:04:55.636Z,11.90
2018-09-25T21:07:30.092Z,12.00
2018-09-25T21:10:04.449Z,12.00
2018-09-25T21:12:38.594Z,12.00
2018-09-25T21:15:12.919Z,12.00
2018-09-25T21:17:47.363Z,11.90
2018-09-25T21:20:21.749Z,11.90
2018-09-25T21:22:56.235Z,12.00
2018-09-25T21:25:30.423Z,11.80
2018-09-25T21:28:04.776Z,11.80
2018-09-25T21:30:38.927Z,11.70
2018-09-25T21:33:13.296Z,11.50
2018-09-25T21:35:48.436Z,11.50
2018-09-25T21:38:22.884Z,11.40
2018-09-25T21:40:57.329Z,11.50
2018-09-25T21:43:31.671Z,11.40
2018-09-25T21:46:05.956Z,11.50
2018-09-25T21:48:40.364Z,11.50
2018-09-25T21:51:15.089Z,11.60
2018-09-25T21:53:49.288Z,11.70
2018-09-25T21:56:23.762Z,12.00
2018-09-25T21:58:58.046Z,12.20
2018-09-25T22:01:32.202Z,12.40
2018-09-25T22:04:06.549Z,12.50
2018-09-25T22:06:41.102Z,12.40
2018-09-25T22:09:15.294Z,12.50
2018-09-25T22:11:49.703Z,12.30
2018-09-25T22:14:23.932Z,12.00
2018-09-25T22:16:58.404Z,11.90
2018-09-25T22:19:32.825Z,12.00
2018-09-25T22:22:07.244Z,12.20
2018-09-25T22:24:42.154Z,12.50
2018-09-25T22:27:16.544Z,12.40
2018-09-25T22:29:50.723Z,12.00
2018-09-25T22:32:25.068Z,12.00
2018-09-25T22:34:59.463Z,12.00
2018-09-25T22:37:33.732Z,12.30
2018-09-25T22:40:08.036Z,12.50
2018-09-25T22:42:42.180Z,12.60
2018-09-25T22:45:16.560Z,12.70
2018-09-25T22:47:51.724Z,12.60
2018-09-25T22:50:26.019Z,12.70
2018-09-25T22:53:00.264Z,12.60
2018-09-25T22:55:34.931Z,12.60
2018-09-25T22:58:09.378Z,12.70
2018-09-25T23:00:43.703Z,12.60
2018-09-25T23:03:18.132Z,12.70
2018-09-25T23:05:52.514Z,12.70
2018-09-25T23:08:27.039Z,12.70
2018-09-25T23:11:01.282Z,12.70
2018-09-25T23:13:35.423Z,12.70
2018-09-25T23:16:09.603Z,12.70
2018-09-25T23:18:44.572Z,12.70
2018-09-25T23:21:19.001Z,12.70
2018-09-25T23:23:53.338Z,12.70
2018-09-25T23:26:28.075Z,12.60
2018-09-25T23:29:02.395Z,12.60
2018-09-25T23:31:36.747Z,12.60
2018-09-25T23:34:11.167Z,12.60
2018-09-25T23:36:45.619Z,12.60
2018-09-25T23:39:20.187Z,12.60
2018-09-25T23:41:54.706Z,12.50
2018-09-25T23:44:40.827Z,12.50
2018-09-25T23:47:49.452Z,12.40
2018-09-25T23:50:40.769Z,12.40
2018-09-25T23:53:15.158Z,12.50
2018-09-25T23:55:49.740Z,12.40
2018-09-25T23:58:25.576Z,12.40
